Terminal Aerodrome Forecast
Issued by NWS Topeka, KS

Home | Current Version | Previous Version | Text Only | Print | Product List | Glossary On
Versions: 1 2 3 4 5 6 7 8 9 10 11 12 13 14 15 16 17
000
FTUS43 KTOP 020200 AAB
TAFTOP
TAF AMD
KTOP 020247Z 0203/0224 11008KT P6SM VCTS BKN040CB
      TEMPO 0203/0204 VRB25KT 1SM +TSRA OVC020CB
     FM020600 13007KT P6SM VCTS BKN035CB
      TEMPO 0209/0213 2SM TSRA OVC030CB
     FM021500 13005KT 3SM -TSRA BKN030CB
     FM022100 32012G20KT P6SM BKN020=

USA.gov is the U.S. government's official web portal to all federal, state and local government web resources and services.